Terminal Aerodrome Forecast
Issued by NWS

Home | Current Version | Previous Version | Text Only | Print | Product List | Glossary On
Versions: 1 2 3 4 5 6 7 8 9 10 11 12 13 14 15 16 17 18 19 20 21
693
FTUS43 KGRR 261140
TAFMKG
TAF
KMKG 261140Z 2612/2712 10010KT 6SM -RA BR OVC007
     FM261400 13011KT 3SM -RA BR OVC005
     FM270000 24003KT 2SM BR OVC015
     FM270600 25004KT 2SM BR OVC007=

USA.gov is the U.S. government's official web portal to all federal, state and local government web resources and services.